sensor_id;sensor_type;location;lat;lon;timestamp;P1;durP1;ratioP1;P2;durP2;ratioP2
79693;SDS011;69165;52.714;13.200;2023-05-07T05:01:37;13.33;;;9.13;;
79693;SDS011;69165;52.714;13.200;2023-05-07T05:03:39;15.30;;;10.23;;
79693;SDS011;69165;52.714;13.200;2023-05-07T05:05:41;17.13;;;9.47;;
79693;SDS011;69165;52.714;13.200;2023-05-07T05:07:43;13.13;;;8.80;;
79693;SDS011;69165;52.714;13.200;2023-05-07T05:09:44;18.90;;;9.13;;
79693;SDS011;69165;52.714;13.200;2023-05-07T05:11:46;17.43;;;9.93;;
79693;SDS011;69165;52.714;13.200;2023-05-07T05:13:48;23.07;;;10.47;;
79693;SDS011;69165;52.714;13.200;2023-05-07T05:15:50;14.43;;;9.20;;
79693;SDS011;69165;52.714;13.200;2023-05-07T05:17:52;12.97;;;9.40;;
79693;SDS011;69165;52.714;13.200;2023-05-07T05:19:54;19.30;;;10.70;;
79693;SDS011;69165;52.714;13.200;2023-05-07T05:21:56;15.40;;;10.00;;
79693;SDS011;69165;52.714;13.200;2023-05-07T05:23:57;26.73;;;10.47;;
79693;SDS011;69165;52.714;13.200;2023-05-07T05:25:59;19.10;;;10.80;;
79693;SDS011;69165;52.714;13.200;2023-05-07T05:28:01;15.00;;;9.97;;
79693;SDS011;69165;52.714;13.200;2023-05-07T05:30:03;18.63;;;9.40;;
79693;SDS011;69165;52.714;13.200;2023-05-07T05:32:05;15.97;;;9.57;;
79693;SDS011;69165;52.714;13.200;2023-05-07T05:34:07;16.90;;;9.80;;
79693;SDS011;69165;52.714;13.200;2023-05-07T05:36:09;14.00;;;9.90;;
79693;SDS011;69165;52.714;13.200;2023-05-07T05:38:10;22.83;;;10.10;;
79693;SDS011;69165;52.714;13.200;2023-05-07T05:40:12;14.83;;;9.23;;
79693;SDS011;69165;52.714;13.200;2023-05-07T05:42:13;20.90;;;10.07;;
79693;SDS011;69165;52.714;13.200;2023-05-07T05:44:16;16.27;;;9.37;;
79693;SDS011;69165;52.714;13.200;2023-05-07T05:46:18;20.43;;;9.60;;
79693;SDS011;69165;52.714;13.200;2023-05-07T05:48:20;14.37;;;9.30;;
79693;SDS011;69165;52.714;13.200;2023-05-07T05:50:21;18.60;;;10.30;;
79693;SDS011;69165;52.714;13.200;2023-05-07T05:52:24;20.57;;;9.63;;
79693;SDS011;69165;52.714;13.200;2023-05-07T05:54:25;14.20;;;8.83;;
79693;SDS011;69165;52.714;13.200;2023-05-07T05:56:27;18.40;;;10.97;;
79693;SDS011;69165;52.714;13.200;2023-05-07T05:58:29;27.30;;;10.50;;
79693;SDS011;69165;52.714;13.200;2023-05-07T06:00:31;13.17;;;9.00;;
79693;SDS011;69165;52.714;13.200;2023-05-07T06:02:33;13.93;;;9.93;;
79693;SDS011;69165;52.714;13.200;2023-05-07T06:04:35;16.57;;;8.73;;
79693;SDS011;69165;52.714;13.200;2023-05-07T06:06:37;16.57;;;9.43;;
79693;SDS011;69165;52.714;13.200;2023-05-07T06:08:38;18.07;;;9.97;;
79693;SDS011;69165;52.714;13.200;2023-05-07T06:10:41;14.17;;;9.10;;
79693;SDS011;69165;52.714;13.200;2023-05-07T06:12:43;16.00;;;9.20;;
79693;SDS011;69165;52.714;13.200;2023-05-07T06:14:45;29.97;;;8.57;;
79693;SDS011;69165;52.714;13.200;2023-05-07T06:16:48;22.20;;;9.53;;
79693;SDS011;69165;52.714;13.200;2023-05-07T06:18:49;12.00;;;7.73;;
79693;SDS011;69165;52.714;13.200;2023-05-07T06:20:51;11.43;;;8.50;;
79693;SDS011;69165;52.714;13.200;2023-05-07T06:22:53;16.50;;;8.53;;
79693;SDS011;69165;52.714;13.200;2023-05-07T06:24:55;18.57;;;9.30;;
79693;SDS011;69165;52.714;13.200;2023-05-07T06:26:56;10.07;;;8.03;;
79693;SDS011;69165;52.714;13.200;2023-05-07T06:28:59;10.17;;;7.50;;
79693;SDS011;69165;52.714;13.200;2023-05-07T06:31:10;14.83;;;8.43;;
79693;SDS011;69165;52.714;13.200;2023-05-07T06:33:09;13.60;;;8.17;;
79693;SDS011;69165;52.714;13.200;2023-05-07T06:35:10;15.20;;;8.60;;
79693;SDS011;69165;52.714;13.200;2023-05-07T06:37:13;11.33;;;8.03;;
79693;SDS011;69165;52.714;13.200;2023-05-07T06:39:15;18.33;;;8.63;;
79693;SDS011;69165;52.714;13.200;2023-05-07T06:41:17;12.03;;;7.67;;
79693;SDS011;69165;52.714;13.200;2023-05-07T06:43:18;15.53;;;8.33;;
79693;SDS011;69165;52.714;13.200;2023-05-07T06:45:20;16.03;;;9.30;;
79693;SDS011;69165;52.714;13.200;2023-05-07T06:47:22;21.47;;;8.80;;
79693;SDS011;69165;52.714;13.200;2023-05-07T06:49:23;12.10;;;8.30;;
79693;SDS011;69165;52.714;13.200;2023-05-07T06:51:26;11.73;;;7.90;;
79693;SDS011;69165;52.714;13.200;2023-05-07T06:53:28;15.47;;;8.60;;
79693;SDS011;69165;52.714;13.200;2023-05-07T06:55:30;9.10;;;7.10;;
79693;SDS011;69165;52.714;13.200;2023-05-07T06:57:33;14.27;;;7.80;;
79693;SDS011;69165;52.714;13.200;2023-05-07T06:59:35;8.57;;;7.20;;
79693;SDS011;69165;52.714;13.200;2023-05-07T07:01:37;12.87;;;7.40;;
79693;SDS011;69165;52.714;13.200;2023-05-07T07:03:38;14.20;;;7.43;;
79693;SDS011;69165;52.714;13.200;2023-05-07T07:05:40;12.60;;;7.13;;
79693;SDS011;69165;52.714;13.200;2023-05-07T07:07:41;12.00;;;7.40;;
79693;SDS011;69165;52.714;13.200;2023-05-07T07:09:44;11.43;;;7.80;;
79693;SDS011;69165;52.714;13.200;2023-05-07T07:11:46;9.83;;;6.87;;
79693;SDS011;69165;52.714;13.200;2023-05-07T07:13:48;9.90;;;6.77;;
79693;SDS011;69165;52.714;13.200;2023-05-07T07:15:51;10.53;;;7.27;;
79693;SDS011;69165;52.714;13.200;2023-05-07T07:17:53;23.83;;;7.43;;
79693;SDS011;69165;52.714;13.200;2023-05-07T07:19:55;15.67;;;6.23;;
79693;SDS011;69165;52.714;13.200;2023-05-07T07:21:56;13.87;;;7.13;;
79693;SDS011;69165;52.714;13.200;2023-05-07T07:23:58;15.70;;;7.00;;
79693;SDS011;69165;52.714;13.200;2023-05-07T07:26:00;11.93;;;7.30;;
79693;SDS011;69165;52.714;13.200;2023-05-07T07:28:03;10.17;;;7.93;;
79693;SDS011;69165;52.714;13.200;2023-05-07T07:30:06;10.70;;;7.07;;
79693;SDS011;69165;52.714;13.200;2023-05-07T07:32:08;13.93;;;7.03;;
79693;SDS011;69165;52.714;13.200;2023-05-07T07:34:09;12.27;;;6.70;;
79693;SDS011;69165;52.714;13.200;2023-05-07T07:36:11;7.17;;;6.00;;
79693;SDS011;69165;52.714;13.200;2023-05-07T07:38:13;8.13;;;6.43;;
79693;SDS011;69165;52.714;13.200;2023-05-07T07:40:15;8.97;;;5.90;;
79693;SDS011;69165;52.714;13.200;2023-05-07T07:42:17;9.90;;;6.73;;
79693;SDS011;69165;52.714;13.200;2023-05-07T07:44:19;5.90;;;5.27;;
79693;SDS011;69165;52.714;13.200;2023-05-07T07:46:21;12.60;;;6.00;;
79693;SDS011;69165;52.714;13.200;2023-05-07T07:48:22;8.63;;;6.33;;
79693;SDS011;69165;52.714;13.200;2023-05-07T07:50:24;12.83;;;5.57;;
79693;SDS011;69165;52.714;13.200;2023-05-07T07:52:25;10.10;;;6.50;;
79693;SDS011;69165;52.714;13.200;2023-05-07T07:54:27;9.80;;;5.87;;
79693;SDS011;69165;52.714;13.200;2023-05-07T07:56:29;8.80;;;5.13;;
79693;SDS011;69165;52.714;13.200;2023-05-07T07:58:30;7.63;;;5.30;;
79693;SDS011;69165;52.714;13.200;2023-05-07T08:00:32;8.30;;;4.03;;
79693;SDS011;69165;52.714;13.200;2023-05-07T08:02:33;4.03;;;3.73;;
79693;SDS011;69165;52.714;13.200;2023-05-07T08:04:35;6.40;;;5.07;;
79693;SDS011;69165;52.714;13.200;2023-05-07T08:06:37;4.03;;;3.73;;
79693;SDS011;69165;52.714;13.200;2023-05-07T08:08:38;4.60;;;4.20;;
79693;SDS011;69165;52.714;13.200;2023-05-07T08:10:40;6.53;;;3.90;;
79693;SDS011;69165;52.714;13.200;2023-05-07T08:12:41;8.90;;;4.57;;
79693;SDS011;69165;52.714;13.200;2023-05-07T08:14:43;10.37;;;4.37;;
79693;SDS011;69165;52.714;13.200;2023-05-07T08:16:45;4.10;;;3.80;;
79693;SDS011;69165;52.714;13.200;2023-05-07T08:18:47;4.00;;;3.70;;
79693;SDS011;69165;52.714;13.200;2023-05-07T08:20:50;5.73;;;4.13;;
79693;SDS011;69165;52.714;13.200;2023-05-07T08:22:51;5.73;;;4.20;;
79693;SDS011;69165;52.714;13.200;2023-05-07T08:24:53;7.10;;;4.57;;
79693;SDS011;69165;52.714;13.200;2023-05-07T08:26:54;6.43;;;3.70;;
79693;SDS011;69165;52.714;13.200;2023-05-07T08:28:56;4.30;;;3.57;;
79693;SDS011;69165;52.714;13.200;2023-05-07T08:30:57;7.60;;;5.83;;
79693;SDS011;69165;52.714;13.200;2023-05-07T08:32:59;4.93;;;4.50;;
79693;SDS011;69165;52.714;13.200;2023-05-07T08:35:01;8.27;;;4.47;;
79693;SDS011;69165;52.714;13.200;2023-05-07T08:37:02;5.37;;;4.00;;
79693;SDS011;69165;52.714;13.200;2023-05-07T08:39:05;10.20;;;3.93;;
79693;SDS011;69165;52.714;13.200;2023-05-07T08:41:08;4.47;;;3.87;;
79693;SDS011;69165;52.714;13.200;2023-05-07T08:43:12;6.03;;;4.00;;
79693;SDS011;69165;52.714;13.200;2023-05-07T08:45:13;9.10;;;4.50;;
79693;SDS011;69165;52.714;13.200;2023-05-07T08:47:15;5.80;;;4.10;;
79693;SDS011;69165;52.714;13.200;2023-05-07T08:49:16;12.57;;;4.20;;
79693;SDS011;69165;52.714;13.200;2023-05-07T08:51:18;9.87;;;4.80;;
79693;SDS011;69165;52.714;13.200;2023-05-07T08:53:19;6.30;;;4.33;;
79693;SDS011;69165;52.714;13.200;2023-05-07T08:55:21;6.50;;;4.40;;
79693;SDS011;69165;52.714;13.200;2023-05-07T08:57:23;3.60;;;3.27;;
79693;SDS011;69165;52.714;13.200;2023-05-07T08:59:25;8.80;;;4.20;;
79693;SDS011;69165;52.714;13.200;2023-05-07T09:01:26;5.20;;;3.40;;
79693;SDS011;69165;52.714;13.200;2023-05-07T09:03:28;5.63;;;4.10;;
79693;SDS011;69165;52.714;13.200;2023-05-07T09:05:29;3.80;;;3.50;;
79693;SDS011;69165;52.714;13.200;2023-05-07T09:07:31;4.50;;;3.40;;
79693;SDS011;69165;52.714;13.200;2023-05-07T09:09:32;5.87;;;3.83;;
79693;SDS011;69165;52.714;13.200;2023-05-07T09:11:34;6.77;;;3.83;;
79693;SDS011;69165;52.714;13.200;2023-05-07T09:13:36;4.00;;;3.70;;
79693;SDS011;69165;52.714;13.200;2023-05-07T09:15:37;8.30;;;4.27;;
79693;SDS011;69165;52.714;13.200;2023-05-07T09:17:39;4.20;;;3.80;;
79693;SDS011;69165;52.714;13.200;2023-05-07T09:19:42;3.60;;;3.30;;
79693;SDS011;69165;52.714;13.200;2023-05-07T09:21:44;4.50;;;4.00;;
79693;SDS011;69165;52.714;13.200;2023-05-07T09:23:53;5.10;;;3.73;;
79693;SDS011;69165;52.714;13.200;2023-05-07T09:25:59;7.07;;;3.77;;
79693;SDS011;69165;52.714;13.200;2023-05-07T09:27:57;10.47;;;4.40;;
79693;SDS011;69165;52.714;13.200;2023-05-07T09:29:58;5.00;;;4.20;;
79693;SDS011;69165;52.714;13.200;2023-05-07T09:32:01;7.80;;;4.37;;
79693;SDS011;69165;52.714;13.200;2023-05-07T09:34:04;3.50;;;2.73;;
79693;SDS011;69165;52.714;13.200;2023-05-07T09:36:07;5.30;;;4.57;;
79693;SDS011;69165;52.714;13.200;2023-05-07T09:38:08;5.93;;;4.17;;
79693;SDS011;69165;52.714;13.200;2023-05-07T09:40:26;3.83;;;3.53;;
79693;SDS011;69165;52.714;13.200;2023-05-07T09:42:27;4.27;;;3.90;;
79693;SDS011;69165;52.714;13.200;2023-05-07T09:44:28;9.97;;;4.87;;
79693;SDS011;69165;52.714;13.200;2023-05-07T09:46:31;5.90;;;4.50;;
79693;SDS011;69165;52.714;13.200;2023-05-07T09:48:35;7.73;;;5.00;;
79693;SDS011;69165;52.714;13.200;2023-05-07T09:50:36;5.73;;;5.23;;
79693;SDS011;69165;52.714;13.200;2023-05-07T09:52:37;10.00;;;7.17;;
79693;SDS011;69165;52.714;13.200;2023-05-07T09:54:39;6.23;;;4.77;;
79693;SDS011;69165;52.714;13.200;2023-05-07T09:56:42;4.90;;;3.83;;
79693;SDS011;69165;52.714;13.200;2023-05-07T09:58:43;14.73;;;3.60;;
79693;SDS011;69165;52.714;13.200;2023-05-07T10:00:45;5.73;;;4.70;;
79693;SDS011;69165;52.714;13.200;2023-05-07T10:02:48;7.17;;;4.10;;
79693;SDS011;69165;52.714;13.200;2023-05-07T10:04:49;8.60;;;4.20;;
79693;SDS011;69165;52.714;13.200;2023-05-07T10:06:51;8.10;;;4.33;;
79693;SDS011;69165;52.714;13.200;2023-05-07T10:08:52;7.70;;;4.10;;
79693;SDS011;69165;52.714;13.200;2023-05-07T10:10:55;4.40;;;3.80;;
79693;SDS011;69165;52.714;13.200;2023-05-07T10:12:57;6.23;;;4.10;;
79693;SDS011;69165;52.714;13.200;2023-05-07T10:14:59;7.70;;;4.00;;
79693;SDS011;69165;52.714;13.200;2023-05-07T10:17:00;4.33;;;3.90;;
79693;SDS011;69165;52.714;13.200;2023-05-07T10:19:03;16.80;;;4.17;;
79693;SDS011;69165;52.714;13.200;2023-05-07T10:21:08;13.53;;;3.93;;
79693;SDS011;69165;52.714;13.200;2023-05-07T10:23:08;5.63;;;3.37;;
79693;SDS011;69165;52.714;13.200;2023-05-07T10:25:21;6.40;;;3.70;;
79693;SDS011;69165;52.714;13.200;2023-05-07T10:27:20;4.07;;;3.70;;
79693;SDS011;69165;52.714;13.200;2023-05-07T10:30:05;8.60;;;3.53;;
79693;SDS011;69165;52.714;13.200;2023-05-07T10:31:55;6.57;;;4.53;;
79693;SDS011;69165;52.714;13.200;2023-05-07T10:33:55;4.87;;;3.90;;
79693;SDS011;69165;52.714;13.200;2023-05-07T10:35:58;4.70;;;3.20;;
79693;SDS011;69165;52.714;13.200;2023-05-07T10:37:59;4.30;;;3.83;;
79693;SDS011;69165;52.714;13.200;2023-05-07T10:40:01;3.60;;;3.40;;
79693;SDS011;69165;52.714;13.200;2023-05-07T10:42:07;3.90;;;3.50;;
79693;SDS011;69165;52.714;13.200;2023-05-07T10:44:09;4.57;;;4.17;;
79693;SDS011;69165;52.714;13.200;2023-05-07T10:46:14;9.43;;;4.90;;
79693;SDS011;69165;52.714;13.200;2023-05-07T10:48:15;11.10;;;3.90;;
79693;SDS011;69165;52.714;13.200;2023-05-07T10:50:20;3.90;;;3.70;;
79693;SDS011;69165;52.714;13.200;2023-05-07T10:52:23;4.70;;;3.60;;
79693;SDS011;69165;52.714;13.200;2023-05-07T10:54:25;4.33;;;3.53;;
79693;SDS011;69165;52.714;13.200;2023-05-07T10:56:27;3.23;;;3.00;;
79693;SDS011;69165;52.714;13.200;2023-05-07T10:58:28;3.83;;;3.50;;
79693;SDS011;69165;52.714;13.200;2023-05-07T11:05:20;5.00;;;3.70;;
79693;SDS011;69165;52.714;13.200;2023-05-07T11:07:24;4.10;;;3.70;;
79693;SDS011;69165;52.714;13.200;2023-05-07T11:09:35;12.23;;;2.73;;
79693;SDS011;69165;52.714;13.200;2023-05-07T11:13:42;3.50;;;3.30;;
79693;SDS011;69165;52.714;13.200;2023-05-07T11:15:43;4.70;;;3.63;;
79693;SDS011;69165;52.714;13.200;2023-05-07T11:19:54;10.20;;;4.00;;
79693;SDS011;69165;52.714;13.200;2023-05-07T11:21:55;2.90;;;2.80;;
79693;SDS011;69165;52.714;13.200;2023-05-07T11:23:57;4.83;;;3.13;;
79693;SDS011;69165;52.714;13.200;2023-05-07T11:25:59;3.13;;;2.90;;
79693;SDS011;69165;52.714;13.200;2023-05-07T11:28:05;4.27;;;3.33;;
79693;SDS011;69165;52.714;13.200;2023-05-07T11:30:06;28.63;;;4.07;;
79693;SDS011;69165;52.714;13.200;2023-05-07T11:32:09;10.23;;;4.80;;
79693;SDS011;69165;52.714;13.200;2023-05-07T11:34:11;3.97;;;3.67;;
79693;SDS011;69165;52.714;13.200;2023-05-07T11:36:13;5.20;;;3.20;;
79693;SDS011;69165;52.714;13.200;2023-05-07T11:38:14;6.73;;;3.37;;
79693;SDS011;69165;52.714;13.200;2023-05-07T11:40:16;3.93;;;2.90;;
79693;SDS011;69165;52.714;13.200;2023-05-07T11:44:39;3.30;;;3.10;;
79693;SDS011;69165;52.714;13.200;2023-05-07T11:46:28;2.93;;;2.70;;
79693;SDS011;69165;52.714;13.200;2023-05-07T11:48:31;4.63;;;2.90;;
79693;SDS011;69165;52.714;13.200;2023-05-07T11:50:33;6.70;;;3.20;;
79693;SDS011;69165;52.714;13.200;2023-05-07T11:52:35;2.93;;;2.77;;
79693;SDS011;69165;52.714;13.200;2023-05-07T11:54:37;3.43;;;2.60;;
79693;SDS011;69165;52.714;13.200;2023-05-07T11:56:39;8.47;;;3.57;;
79693;SDS011;69165;52.714;13.200;2023-05-07T11:58:41;3.27;;;2.93;;
79693;SDS011;69165;52.714;13.200;2023-05-07T12:00:47;3.30;;;3.10;;
79693;SDS011;69165;52.714;13.200;2023-05-07T12:02:45;4.10;;;2.77;;
79693;SDS011;69165;52.714;13.200;2023-05-07T12:04:46;5.30;;;3.50;;
79693;SDS011;69165;52.714;13.200;2023-05-07T12:06:47;2.80;;;2.70;;
79693;SDS011;69165;52.714;13.200;2023-05-07T12:08:49;3.10;;;2.37;;
79693;SDS011;69165;52.714;13.200;2023-05-07T12:10:51;3.50;;;3.20;;
79693;SDS011;69165;52.714;13.200;2023-05-07T12:12:54;3.17;;;2.80;;
79693;SDS011;69165;52.714;13.200;2023-05-07T12:14:55;2.50;;;2.40;;
79693;SDS011;69165;52.714;13.200;2023-05-07T12:16:57;5.37;;;2.90;;
79693;SDS011;69165;52.714;13.200;2023-05-07T12:18:58;3.10;;;2.90;;
79693;SDS011;69165;52.714;13.200;2023-05-07T12:21:00;3.70;;;3.40;;
79693;SDS011;69165;52.714;13.200;2023-05-07T12:23:02;2.87;;;2.67;;
79693;SDS011;69165;52.714;13.200;2023-05-07T12:25:04;3.67;;;3.37;;
79693;SDS011;69165;52.714;13.200;2023-05-07T12:27:06;3.00;;;2.40;;
79693;SDS011;69165;52.714;13.200;2023-05-07T12:29:09;13.30;;;2.93;;
79693;SDS011;69165;52.714;13.200;2023-05-07T12:31:10;5.17;;;2.90;;
79693;SDS011;69165;52.714;13.200;2023-05-07T12:33:14;3.57;;;3.27;;
79693;SDS011;69165;52.714;13.200;2023-05-07T12:35:14;3.40;;;3.10;;
79693;SDS011;69165;52.714;13.200;2023-05-07T12:37:15;5.60;;;3.07;;
79693;SDS011;69165;52.714;13.200;2023-05-07T12:39:18;12.93;;;3.00;;
79693;SDS011;69165;52.714;13.200;2023-05-07T12:41:20;3.33;;;3.13;;
79693;SDS011;69165;52.714;13.200;2023-05-07T12:43:25;5.37;;;2.90;;
79693;SDS011;69165;52.714;13.200;2023-05-07T12:45:27;2.67;;;2.47;;
79693;SDS011;69165;52.714;13.200;2023-05-07T12:47:28;4.20;;;3.07;;
79693;SDS011;69165;52.714;13.200;2023-05-07T12:49:30;9.03;;;2.73;;
79693;SDS011;69165;52.714;13.200;2023-05-07T12:51:32;2.60;;;2.50;;
79693;SDS011;69165;52.714;13.200;2023-05-07T12:53:33;4.43;;;3.40;;
79693;SDS011;69165;52.714;13.200;2023-05-07T12:55:44;3.87;;;2.70;;
79693;SDS011;69165;52.714;13.200;2023-05-07T12:57:47;2.90;;;2.63;;
79693;SDS011;69165;52.714;13.200;2023-05-07T12:59:47;3.60;;;3.23;;
79693;SDS011;69165;52.714;13.200;2023-05-07T13:01:48;3.20;;;3.00;;
79693;SDS011;69165;52.714;13.200;2023-05-07T13:03:50;12.33;;;3.37;;
79693;SDS011;69165;52.714;13.200;2023-05-07T13:05:52;3.63;;;3.07;;
79693;SDS011;69165;52.714;13.200;2023-05-07T13:07:54;3.70;;;2.80;;
79693;SDS011;69165;52.714;13.200;2023-05-07T13:09:57;5.80;;;2.90;;
79693;SDS011;69165;52.714;13.200;2023-05-07T13:11:59;4.10;;;2.87;;
79693;SDS011;69165;52.714;13.200;2023-05-07T13:14:00;4.50;;;2.97;;
79693;SDS011;69165;52.714;13.200;2023-05-07T13:16:02;3.33;;;3.13;;
79693;SDS011;69165;52.714;13.200;2023-05-07T13:18:04;4.63;;;3.20;;
79693;SDS011;69165;52.714;13.200;2023-05-07T13:20:06;2.70;;;2.47;;
79693;SDS011;69165;52.714;13.200;2023-05-07T13:22:08;4.40;;;2.60;;
79693;SDS011;69165;52.714;13.200;2023-05-07T13:24:10;2.90;;;2.70;;
79693;SDS011;69165;52.714;13.200;2023-05-07T13:26:11;14.07;;;3.13;;
79693;SDS011;69165;52.714;13.200;2023-05-07T13:28:13;3.93;;;2.50;;
79693;SDS011;69165;52.714;13.200;2023-05-07T13:30:14;6.40;;;3.90;;
79693;SDS011;69165;52.714;13.200;2023-05-07T13:32:17;3.30;;;3.10;;
79693;SDS011;69165;52.714;13.200;2023-05-07T13:34:18;2.87;;;2.70;;
79693;SDS011;69165;52.714;13.200;2023-05-07T13:36:21;2.70;;;2.60;;
79693;SDS011;69165;52.714;13.200;2023-05-07T13:38:22;2.63;;;2.43;;
79693;SDS011;69165;52.714;13.200;2023-05-07T13:40:24;2.50;;;2.40;;
79693;SDS011;69165;52.714;13.200;2023-05-07T13:42:26;2.73;;;2.53;;
79693;SDS011;69165;52.714;13.200;2023-05-07T13:44:27;6.00;;;2.97;;
79693;SDS011;69165;52.714;13.200;2023-05-07T13:46:29;3.07;;;2.87;;
79693;SDS011;69165;52.714;13.200;2023-05-07T13:48:30;4.50;;;2.93;;
79693;SDS011;69165;52.714;13.200;2023-05-07T13:50:33;3.27;;;3.10;;
79693;SDS011;69165;52.714;13.200;2023-05-07T13:52:35;3.70;;;3.27;;
79693;SDS011;69165;52.714;13.200;2023-05-07T13:54:38;2.67;;;2.50;;
79693;SDS011;69165;52.714;13.200;2023-05-07T13:56:40;3.43;;;3.20;;
79693;SDS011;69165;52.714;13.200;2023-05-07T13:58:42;5.40;;;2.70;;
79693;SDS011;69165;52.714;13.200;2023-05-07T14:00:44;5.00;;;3.23;;
79693;SDS011;69165;52.714;13.200;2023-05-07T14:02:46;2.60;;;2.50;;
79693;SDS011;69165;52.714;13.200;2023-05-07T14:04:47;2.70;;;2.53;;
79693;SDS011;69165;52.714;13.200;2023-05-07T14:06:49;7.70;;;2.67;;
79693;SDS011;69165;52.714;13.200;2023-05-07T14:08:50;8.70;;;3.07;;
79693;SDS011;69165;52.714;13.200;2023-05-07T14:10:52;7.30;;;3.27;;
79693;SDS011;69165;52.714;13.200;2023-05-07T14:12:54;5.20;;;3.77;;
79693;SDS011;69165;52.714;13.200;2023-05-07T14:14:57;5.00;;;2.90;;
79693;SDS011;69165;52.714;13.200;2023-05-07T14:16:58;3.90;;;3.40;;
79693;SDS011;69165;52.714;13.200;2023-05-07T14:19:00;2.50;;;2.40;;
79693;SDS011;69165;52.714;13.200;2023-05-07T14:21:02;3.10;;;2.40;;
79693;SDS011;69165;52.714;13.200;2023-05-07T14:23:04;3.33;;;2.90;;
79693;SDS011;69165;52.714;13.200;2023-05-07T14:25:08;3.63;;;3.33;;
79693;SDS011;69165;52.714;13.200;2023-05-07T14:27:09;4.27;;;3.23;;
79693;SDS011;69165;52.714;13.200;2023-05-07T14:29:11;6.60;;;2.50;;
79693;SDS011;69165;52.714;13.200;2023-05-07T14:31:13;8.23;;;3.00;;
79693;SDS011;69165;52.714;13.200;2023-05-07T14:33:14;3.20;;;3.00;;
79693;SDS011;69165;52.714;13.200;2023-05-07T14:35:16;6.33;;;3.10;;
79693;SDS011;69165;52.714;13.200;2023-05-07T14:37:18;4.63;;;2.90;;
79693;SDS011;69165;52.714;13.200;2023-05-07T14:39:20;3.23;;;3.03;;
79693;SDS011;69165;52.714;13.200;2023-05-07T14:41:21;3.63;;;2.63;;
79693;SDS011;69165;52.714;13.200;2023-05-07T14:43:23;3.03;;;2.83;;
79693;SDS011;69165;52.714;13.200;2023-05-07T14:45:25;2.30;;;2.20;;
79693;SDS011;69165;52.714;13.200;2023-05-07T14:47:27;2.93;;;2.73;;
79693;SDS011;69165;52.714;13.200;2023-05-07T14:49:29;3.20;;;2.73;;
79693;SDS011;69165;52.714;13.200;2023-05-07T14:51:31;2.90;;;2.70;;
79693;SDS011;69165;52.714;13.200;2023-05-07T14:53:33;4.93;;;3.53;;
79693;SDS011;69165;52.714;13.200;2023-05-07T14:55:34;3.50;;;3.30;;
79693;SDS011;69165;52.714;13.200;2023-05-07T14:57:36;3.90;;;3.50;;
79693;SDS011;69165;52.714;13.200;2023-05-07T14:59:37;3.97;;;3.20;;
79693;SDS011;69165;52.714;13.200;2023-05-07T15:01:39;2.80;;;2.63;;
79693;SDS011;69165;52.714;13.200;2023-05-07T15:03:41;4.40;;;3.80;;
79693;SDS011;69165;52.714;13.200;2023-05-07T15:05:42;3.20;;;3.00;;
79693;SDS011;69165;52.714;13.200;2023-05-07T15:07:44;2.60;;;2.40;;
79693;SDS011;69165;52.714;13.200;2023-05-07T15:09:45;3.63;;;3.20;;
79693;SDS011;69165;52.714;13.200;2023-05-07T15:11:47;3.60;;;3.27;;
79693;SDS011;69165;52.714;13.200;2023-05-07T15:13:49;3.13;;;2.93;;
79693;SDS011;69165;52.714;13.200;2023-05-07T15:15:50;4.57;;;2.67;;
79693;SDS011;69165;52.714;13.200;2023-05-07T15:17:52;4.53;;;2.80;;
79693;SDS011;69165;52.714;13.200;2023-05-07T15:19:53;2.33;;;2.13;;
79693;SDS011;69165;52.714;13.200;2023-05-07T15:21:56;3.47;;;2.50;;
79693;SDS011;69165;52.714;13.200;2023-05-07T15:23:57;4.10;;;2.97;;
79693;SDS011;69165;52.714;13.200;2023-05-07T15:25:59;4.87;;;2.67;;
79693;SDS011;69165;52.714;13.200;2023-05-07T15:28:01;6.00;;;2.40;;
79693;SDS011;69165;52.714;13.200;2023-05-07T15:30:02;8.80;;;1.97;;
79693;SDS011;69165;52.714;13.200;2023-05-07T15:32:04;3.03;;;2.37;;
79693;SDS011;69165;52.714;13.200;2023-05-07T15:34:06;2.47;;;2.10;;
79693;SDS011;69165;52.714;13.200;2023-05-07T15:36:09;3.73;;;2.23;;
79693;SDS011;69165;52.714;13.200;2023-05-07T15:38:10;2.30;;;2.20;;
79693;SDS011;69165;52.714;13.200;2023-05-07T15:40:12;3.90;;;2.00;;
79693;SDS011;69165;52.714;13.200;2023-05-07T15:42:14;8.00;;;2.00;;
79693;SDS011;69165;52.714;13.200;2023-05-07T15:44:15;2.67;;;2.47;;
79693;SDS011;69165;52.714;13.200;2023-05-07T15:46:18;2.47;;;2.37;;
79693;SDS011;69165;52.714;13.200;2023-05-07T15:48:20;2.20;;;2.10;;
79693;SDS011;69165;52.714;13.200;2023-05-07T15:50:22;4.00;;;2.33;;
79693;SDS011;69165;52.714;13.200;2023-05-07T15:52:24;2.37;;;2.27;;
79693;SDS011;69165;52.714;13.200;2023-05-07T15:54:26;3.53;;;2.13;;
79693;SDS011;69165;52.714;13.200;2023-05-07T15:56:27;2.20;;;2.10;;
79693;SDS011;69165;52.714;13.200;2023-05-07T15:58:29;2.30;;;2.13;;
79693;SDS011;69165;52.714;13.200;2023-05-07T16:00:31;2.33;;;2.20;;
79693;SDS011;69165;52.714;13.200;2023-05-07T16:02:32;5.70;;;2.30;;
79693;SDS011;69165;52.714;13.200;2023-05-07T16:04:34;2.50;;;2.30;;
79693;SDS011;69165;52.714;13.200;2023-05-07T16:06:36;5.23;;;2.20;;
79693;SDS011;69165;52.714;13.200;2023-05-07T16:08:37;3.30;;;2.40;;
79693;SDS011;69165;52.714;13.200;2023-05-07T16:10:39;2.30;;;2.20;;
79693;SDS011;69165;52.714;13.200;2023-05-07T16:12:40;2.20;;;2.10;;
79693;SDS011;69165;52.714;13.200;2023-05-07T16:14:43;2.40;;;2.30;;
79693;SDS011;69165;52.714;13.200;2023-05-07T16:16:44;4.57;;;1.90;;
79693;SDS011;69165;52.714;13.200;2023-05-07T16:18:47;2.60;;;2.47;;
79693;SDS011;69165;52.714;13.200;2023-05-07T16:20:48;8.70;;;2.80;;
79693;SDS011;69165;52.714;13.200;2023-05-07T16:22:50;11.47;;;4.03;;
79693;SDS011;69165;52.714;13.200;2023-05-07T16:24:52;2.67;;;2.47;;
79693;SDS011;69165;52.714;13.200;2023-05-07T16:26:54;4.83;;;2.30;;
79693;SDS011;69165;52.714;13.200;2023-05-07T16:28:55;2.00;;;2.00;;
79693;SDS011;69165;52.714;13.200;2023-05-07T16:30:57;2.37;;;2.27;;
79693;SDS011;69165;52.714;13.200;2023-05-07T16:32:59;2.60;;;2.00;;
79693;SDS011;69165;52.714;13.200;2023-05-07T16:35:00;1.87;;;1.87;;
79693;SDS011;69165;52.714;13.200;2023-05-07T16:37:02;7.03;;;2.23;;
79693;SDS011;69165;52.714;13.200;2023-05-07T16:39:04;2.50;;;2.17;;
79693;SDS011;69165;52.714;13.200;2023-05-07T16:41:07;2.10;;;2.00;;
79693;SDS011;69165;52.714;13.200;2023-05-07T16:43:09;6.87;;;2.20;;
79693;SDS011;69165;52.714;13.200;2023-05-07T16:45:11;3.23;;;2.20;;
79693;SDS011;69165;52.714;13.200;2023-05-07T16:47:12;3.13;;;2.87;;
79693;SDS011;69165;52.714;13.200;2023-05-07T16:49:14;2.83;;;2.50;;
79693;SDS011;69165;52.714;13.200;2023-05-07T16:51:15;3.27;;;2.67;;
79693;SDS011;69165;52.714;13.200;2023-05-07T16:53:18;2.13;;;2.03;;
79693;SDS011;69165;52.714;13.200;2023-05-07T16:55:20;2.87;;;2.77;;
79693;SDS011;69165;52.714;13.200;2023-05-07T16:57:23;2.60;;;2.50;;
79693;SDS011;69165;52.714;13.200;2023-05-07T16:59:24;2.93;;;2.73;;
79693;SDS011;69165;52.714;13.200;2023-05-07T17:01:26;7.00;;;2.90;;
79693;SDS011;69165;52.714;13.200;2023-05-07T17:03:27;2.60;;;2.40;;
79693;SDS011;69165;52.714;13.200;2023-05-07T17:05:29;2.70;;;2.50;;
79693;SDS011;69165;52.714;13.200;2023-05-07T17:07:31;2.70;;;2.60;;
79693;SDS011;69165;52.714;13.200;2023-05-07T17:09:32;3.37;;;2.67;;
79693;SDS011;69165;52.714;13.200;2023-05-07T17:11:34;2.13;;;2.00;;
79693;SDS011;69165;52.714;13.200;2023-05-07T17:13:37;4.30;;;2.07;;